Portada
METAR-TAF:

METAR-TAF

Aeroports :

Victòria, Mahé, Seychelles

latitud: 04-40S, longitud: 055-31E, altitud: 3 m

Observació

L'informe es va fer fa 11 minuts, a les 08:00 UTC
Vent 7 kt del Est, variant entre Est/Nord-Est i Sud-Est
Temperatura 29°C
Humitat 70%
Pressió 1011 hPa
Visibilitat 10 km o més
Núvols disperses a una alçada de 2500 ft

METAR: FSIA 180800Z 10007KT 070V130 9999 SCT025 29/23 Q1011 NOSIG

Hora: 12:11 (08:11 UTC)

Pronòstic

L'informe es va fer fa 3 hores i 6 minuts, a les 05:05 UTC
Pronòstic vàlid del 18 a les 06 UTC al 19 a les 06 UTC
Vent 5 kt del Sud-Oest
Visibilitat 10 km o més
Escasses núvols a una alçada de 2500 ft

TAF: FSIA 180505Z 1806/1906 22005KT 9999 FEW025

Observacions i pronòstics meteorològics de més de 4000 aeroports (METAR i TAF).

Les estacions disponibles són els punts grocs i vermells al mapa.

Posi el ratolí al punt desitjat per veure el nom de l'estació.

Feu clic per veure les observacions i els pronòstics meteorològics.

Per canviar el mapa: feu clic els botons verds amb una creu de color negre per apropar; al botó verd amb un guió per allunyar la imatge; o en les fletxes verdes per a mapes adjacents.


METAR-TAF: